Time;durP1;ratioP1;P1;durP2;ratioP2;P2;SDS_P1;SDS_P2;PMS_P1;PMS_P2;Temp;Humidity;BMP_temperature;BMP_pressure;BME280_temperature;BME280_humidity;BME280_pressure;Samples;Min_cycle;Max_cycle;Signal;HPM_P1;HPM_P2
2023/08/25 00:00:41;;;;;;;3.63;2.83;;;;;;;20.32;100.00;97781.78;5032575;28;20208;-85
2023/08/25 00:03:07;;;;;;;4.17;2.80;;;;;;;20.35;100.00;97797.50;5033368;28;20229;-85
2023/08/25 00:05:36;;;;;;;3.07;2.77;;;;;;;20.35;100.00;97792.13;5033084;28;20216;-84
2023/08/25 00:08:04;;;;;;;4.83;2.80;;;;;;;20.41;100.00;97791.44;5032673;28;20233;-84
2023/08/25 00:10:32;;;;;;;2.97;2.57;;;;;;;20.38;100.00;97794.50;5032701;28;20578;-84
2023/08/25 00:12:59;;;;;;;3.00;2.70;;;;;;;20.37;100.00;97795.47;5032797;28;20586;-84
2023/08/25 00:15:25;;;;;;;4.10;3.00;;;;;;;20.35;100.00;97792.13;5032704;28;20670;-85
2023/08/25 00:17:53;;;;;;;3.30;3.00;;;;;;;20.37;100.00;97800.84;5032887;28;20241;-85
2023/08/25 00:20:20;;;;;;;3.47;3.13;;;;;;;20.36;100.00;97804.53;5032470;28;20220;-85
2023/08/25 00:22:47;;;;;;;3.53;2.70;;;;;;;20.37;100.00;97800.84;5032552;28;20215;-85
2023/08/25 00:25:13;;;;;;;5.47;2.80;;;;;;;20.37;100.00;97803.53;5032847;28;20308;-85
2023/08/25 00:27:41;;;;;;;4.57;2.90;;;;;;;20.38;100.00;97807.91;5032455;28;20243;-84
2023/08/25 00:30:10;;;;;;;3.10;2.80;;;;;;;20.42;100.00;97809.22;5035093;28;20585;-84
2023/08/25 00:32:37;;;;;;;4.53;3.20;;;;;;;20.47;100.00;97798.78;5057998;28;20216;-83
2023/08/25 00:35:05;;;;;;;3.27;2.63;;;;;;;20.47;100.00;97798.78;5058221;28;20215;-85
2023/08/25 00:37:31;;;;;;;3.20;2.80;;;;;;;20.51;100.00;97797.44;5057226;28;20224;-85
2023/08/25 00:39:58;;;;;;;2.70;2.50;;;;;;;20.55;100.00;97793.38;5057012;28;20256;-85
2023/08/25 00:42:24;;;;;;;3.43;2.83;;;;;;;20.57;100.00;97795.88;5042906;28;20209;-83
2023/08/25 00:44:52;;;;;;;3.63;3.00;;;;;;;20.54;100.00;97789.03;5035704;28;20211;-84
2023/08/25 00:47:19;;;;;;;4.33;2.70;;;;;;;20.60;100.00;97790.19;5036538;28;20339;-82
2023/08/25 00:49:47;;;;;;;3.00;2.70;;;;;;;20.61;100.00;97783.78;5046756;28;20204;-82
2023/08/25 00:52:15;;;;;;;2.90;2.70;;;;;;;20.57;100.00;97775.25;5046074;28;20217;-83
2023/08/25 00:54:41;;;;;;;3.30;2.90;;;;;;;20.54;100.00;97778.28;5046163;28;20211;-84
2023/08/25 00:57:08;;;;;;;3.30;2.63;;;;;;;20.57;100.00;97777.94;5031760;28;20239;-85
2023/08/25 00:59:35;;;;;;;3.50;2.70;;;;;;;20.59;100.00;97778.59;5031464;28;20201;-87
2023/08/25 01:02:04;;;;;;;3.40;2.40;;;;;;;20.59;100.00;97773.22;5032221;28;20212;-86
2023/08/25 01:04:31;;;;;;;4.27;2.80;;;;;;;20.58;100.00;97771.56;5031863;28;20252;-86
2023/08/25 01:06:57;;;;;;;3.60;2.80;;;;;;;20.58;100.00;97776.94;5031920;28;20235;-87
2023/08/25 01:09:24;;;;;;;3.33;2.57;;;;;;;20.53;100.00;97776.63;5031430;28;20236;-85
2023/08/25 01:12:00;;;;;;;2.93;2.63;;;;;;;20.51;100.00;97775.13;5031647;28;20213;-85
2023/08/25 01:14:36;;;;;;;3.17;2.80;;;;;;;20.54;100.00;97778.28;5031874;28;20342;-84
2023/08/25 01:17:11;;;;;;;2.83;2.60;;;;;;;20.54;100.00;97783.66;5031648;28;20606;-84
2023/08/25 01:19:56;;;;;;;3.77;2.60;;;;;;;20.63;100.00;97779.94;5031556;28;20212;-86
2023/08/25 01:22:28;;;;;;;3.27;2.60;;;;;;;20.73;100.00;97791.25;5049057;28;20212;-85
2023/08/25 01:25:03;;;;;;;2.63;2.40;;;;;;;20.76;100.00;97777.50;5051969;28;20204;-87
2023/08/25 01:27:31;;;;;;;2.67;2.47;;;;;;;20.76;100.00;97784.69;5031850;28;20232;-87
2023/08/25 01:29:58;;;;;;;3.17;2.40;;;;;;;20.74;100.00;97776.84;5031159;28;20204;-84
2023/08/25 01:32:24;;;;;;;3.53;2.60;;;;;;;20.72;100.00;97778.84;5031959;28;20219;-87
2023/08/25 01:34:51;;;;;;;4.80;2.90;;;;;;;20.71;100.00;97774.50;5031411;28;20205;-88
2023/08/25 01:37:24;;;;;;;3.57;2.70;;;;;;;20.73;100.00;97774.31;5031454;28;20346;-87
2023/08/25 01:39:55;;;;;;;2.70;2.50;;;;;;;20.73;100.00;97780.50;5031522;28;20212;-86
2023/08/25 01:42:24;;;;;;;3.77;2.60;;;;;;;20.73;100.00;97775.16;5031396;28;20216;-80
2023/08/25 01:44:54;;;;;;;4.00;2.50;;;;;;;20.72;100.00;97762.72;5031285;28;20219;-81
2023/08/25 01:47:26;;;;;;;3.17;2.77;;;;;;;20.71;100.00;97771.81;5031218;28;20248;-81
2023/08/25 01:49:54;;;;;;;3.33;2.40;;;;;;;20.69;100.00;97779.22;5031138;28;20255;-81
2023/08/25 01:52:21;;;;;;;3.10;2.57;;;;;;;20.73;100.00;97777.84;5031420;28;20702;-82
2023/08/25 01:54:49;;;;;;;3.07;2.67;;;;;;;20.81;100.00;97783.16;5031416;28;20212;-81
2023/08/25 01:57:16;;;;;;;4.37;2.50;;;;;;;20.87;100.00;97781.63;5031087;28;20232;-81
2023/08/25 01:59:43;;;;;;;4.10;2.60;;;;;;;20.87;100.00;97771.72;5030946;28;20205;-81
2023/08/25 02:02:11;;;;;;;3.43;2.90;;;;;;;20.90;100.00;97770.56;5031558;28;20216;-82
2023/08/25 02:04:37;;;;;;;2.70;2.20;;;;;;;20.95;100.00;97774.38;5031231;28;20216;-81
2023/08/25 02:07:04;;;;;;;4.07;2.30;;;;;;;20.99;100.00;97770.31;5031203;28;20239;-82
2023/08/25 02:09:30;;;;;;;3.03;2.50;;;;;;;21.05;100.00;97769.59;5030880;28;20240;-81
2023/08/25 02:11:57;;;;;;;3.57;2.43;;;;;;;21.02;100.00;97761.06;5030921;28;20232;-80
2023/08/25 02:14:23;;;;;;;2.97;2.30;;;;;;;21.04;100.00;97762.53;5031279;28;20209;-82
2023/08/25 02:16:50;;;;;;;3.00;2.07;;;;;;;21.00;100.00;97761.25;5031235;28;20264;-81
2023/08/25 02:19:18;;;;;;;3.30;2.47;;;;;;;21.00;100.00;97761.25;5030906;28;20205;-82
2023/08/25 02:21:46;;;;;;;2.90;2.60;;;;;;;21.03;100.00;97765.41;5031169;28;20209;-82
2023/08/25 02:24:12;;;;;;;3.40;2.50;;;;;;;21.00;100.00;97766.59;5030979;28;20205;-82
2023/08/25 02:26:39;;;;;;;2.90;2.40;;;;;;;21.04;100.00;97762.53;5030697;28;20295;-82
2023/08/25 02:29:06;;;;;;;3.97;2.60;;;;;;;21.02;100.00;97753.81;5031062;28;20705;-82
2023/08/25 02:31:33;;;;;;;4.17;2.43;;;;;;;21.03;100.00;97755.47;5031211;28;20205;-82
2023/08/25 02:33:59;;;;;;;5.00;2.80;;;;;;;21.06;100.00;97748.91;5031343;28;20654;-82
2023/08/25 02:36:27;;;;;;;3.17;2.40;;;;;;;21.10;100.00;97751.06;5031196;28;20204;-82
2023/08/25 02:38:54;;;;;;;3.80;2.87;;;;;;;21.16;100.00;97744.97;5031037;28;20209;-82
2023/08/25 02:41:20;;;;;;;3.13;2.40;;;;;;;21.19;100.00;97733.88;5030600;28;20223;-81
2023/08/25 02:43:47;;;;;;;3.67;2.70;;;;;;;21.25;100.00;97735.81;5031245;28;20208;-82
2023/08/25 02:46:13;;;;;;;5.93;2.30;;;;;;;21.29;100.00;97726.38;5033088;28;20271;-83
2023/08/25 02:48:40;;;;;;;2.90;2.40;;;;;;;21.28;100.00;97722.00;5034196;28;20262;-83
2023/08/25 02:51:06;;;;;;;2.97;2.40;;;;;;;21.29;100.00;97726.38;5033957;28;20656;-81
2023/08/25 02:53:34;;;;;;;2.63;2.40;;;;;;;21.27;100.00;97723.03;5034186;28;20683;-81
2023/08/25 02:56:01;;;;;;;2.60;2.40;;;;;;;21.19;100.00;97733.88;5033996;28;20213;-83
2023/08/25 02:58:27;;;;;;;2.90;2.57;;;;;;;21.08;100.00;97726.22;5034336;28;20228;-81
2023/08/25 03:00:54;;;;;;;2.83;2.37;;;;;;;20.98;100.00;97733.69;5034078;28;20209;-82
2023/08/25 03:03:20;;;;;;;3.17;2.60;;;;;;;20.87;100.00;97733.25;5034340;28;20220;-82
2023/08/25 03:05:46;;;;;;;3.67;2.70;;;;;;;20.75;100.00;97724.78;5034034;28;20208;-82
2023/08/25 03:08:15;;;;;;;4.10;2.70;;;;;;;20.65;100.00;97718.81;5033822;28;20323;-82
2023/08/25 03:10:44;;;;;;;2.97;2.63;;;;;;;20.58;100.00;97712.47;5033491;28;20640;-81
2023/08/25 03:13:11;;;;;;;4.03;2.60;;;;;;;20.52;100.00;97713.19;5034024;28;20215;-81
2023/08/25 03:15:37;;;;;;;4.53;3.30;;;;;;;20.41;100.00;97713.59;5034012;28;20220;-83
2023/08/25 03:18:04;;;;;;;4.30;2.90;;;;;;;20.37;100.00;97714.94;5033595;28;20235;-83
2023/08/25 03:20:30;;;;;;;3.23;2.70;;;;;;;20.31;100.00;97714.84;5033541;28;20213;-82
2023/08/25 03:22:57;;;;;;;3.13;2.60;;;;;;;20.27;100.00;97706.31;5033639;28;20212;-81
2023/08/25 03:25:24;;;;;;;3.20;2.90;;;;;;;20.26;100.00;97706.47;5033645;28;20705;-83
2023/08/25 03:27:51;;;;;;;3.57;2.70;;;;;;;20.21;100.00;97708.84;5048211;22;20236;-85
2023/08/25 03:30:18;;;;;;;3.67;2.67;;;;;;;20.20;100.00;97697.28;5032755;28;20715;-85
2023/08/25 03:32:44;;;;;;;3.27;2.77;;;;;;;20.18;100.00;97701.16;5033506;28;20211;-85
2023/08/25 03:35:11;;;;;;;4.03;2.77;;;;;;;20.13;100.00;97690.13;5033444;28;20299;-85
2023/08/25 03:37:37;;;;;;;4.07;3.00;;;;;;;20.18;100.00;97696.59;5033294;28;20255;-85
2023/08/25 03:40:04;;;;;;;4.90;3.13;;;;;;;20.12;100.00;97688.44;5032905;28;20218;-85
2023/08/25 03:42:31;;;;;;;3.17;2.70;;;;;;;20.11;100.00;97692.97;5033757;28;20595;-85
2023/08/25 03:44:59;;;;;;;3.33;2.93;;;;;;;20.10;100.00;97693.13;5034225;28;20222;-84
2023/08/25 03:47:25;;;;;;;3.83;2.70;;;;;;;20.06;100.00;97692.66;5033207;28;20229;-85
2023/08/25 03:49:52;;;;;;;3.43;2.87;;;;;;;20.03;100.00;97681.41;5032431;28;20233;-85
2023/08/25 03:52:18;;;;;;;2.83;2.20;;;;;;;20.03;100.00;97684.09;5032739;28;20208;-85
2023/08/25 03:54:45;;;;;;;5.03;2.90;;;;;;;20.06;100.00;97671.19;5032890;28;20220;-85
2023/08/25 03:57:11;;;;;;;4.23;2.50;;;;;;;20.03;100.00;97663.47;5032377;28;20225;-85
2023/08/25 03:59:38;;;;;;;3.00;2.70;;;;;;;19.98;100.00;97662.31;5032773;28;20232;-85
2023/08/25 04:02:06;;;;;;;3.40;2.57;;;;;;;19.90;100.00;97663.22;5032602;28;20208;-85
2023/08/25 04:04:32;;;;;;;3.20;2.90;;;;;;;19.82;100.00;97660.53;5032477;28;20212;-86
2023/08/25 04:06:59;;;;;;;3.70;2.73;;;;;;;19.78;100.00;97653.88;5032362;28;20209;-86
2023/08/25 04:09:25;;;;;;;3.10;2.70;;;;;;;19.74;100.00;97652.53;5032258;28;20260;-85
2023/08/25 04:11:53;;;;;;;3.13;2.77;;;;;;;19.74;100.00;97652.53;5032612;28;20209;-86
2023/08/25 04:14:19;;;;;;;3.87;2.70;;;;;;;19.73;100.00;97648.19;5032448;28;20244;-86
2023/08/25 04:16:46;;;;;;;3.00;2.70;;;;;;;19.75;100.00;97639.97;5032645;28;20220;-86
2023/08/25 04:19:16;;;;;;;3.60;3.10;;;;;;;19.70;100.00;97635.13;5032095;28;20225;-86
2023/08/25 04:21:43;;;;;;;3.57;3.00;;;;;;;19.70;100.00;97634.31;5032570;28;20201;-86
2023/08/25 04:24:09;;;;;;;3.43;3.00;;;;;;;19.68;100.00;97637.16;5032413;28;20212;-85
2023/08/25 04:26:36;;;;;;;3.93;3.30;;;;;;;19.68;100.00;97636.34;5032274;28;20220;-85
2023/08/25 04:29:04;;;;;;;5.37;3.73;;;;;;;19.67;100.00;97634.63;5031853;28;20236;-86
2023/08/25 04:31:30;;;;;;;3.90;2.90;;;;;;;19.74;100.00;97631.09;5031840;28;20213;-85
2023/08/25 04:33:57;;;;;;;3.60;3.10;;;;;;;19.75;100.00;97638.13;5032169;28;20580;-85
2023/08/25 04:36:25;;;;;;;4.83;3.50;;;;;;;19.77;100.00;97630.75;5032031;28;20205;-85
2023/08/25 04:38:51;;;;;;;4.03;3.03;;;;;;;19.81;100.00;97628.56;5031969;28;20276;-85
2023/08/25 04:41:18;;;;;;;4.47;2.77;;;;;;;19.76;100.00;97634.41;5031983;28;20209;-85
2023/08/25 04:43:44;;;;;;;4.70;3.10;;;;;;;19.75;100.00;97627.41;5032184;28;20215;-85
2023/08/25 04:46:12;;;;;;;5.27;3.00;;;;;;;19.75;100.00;97627.41;5032828;28;20219;-85
2023/08/25 04:48:43;;;;;;;5.90;3.20;;;;;;;19.77;100.00;97625.41;5032982;28;20319;-85
2023/08/25 04:51:09;;;;;;;4.43;3.20;;;;;;;19.76;100.00;97607.59;5031892;28;20248;-85
2023/08/25 04:53:37;;;;;;;3.87;3.07;;;;;;;19.77;100.00;97609.31;5031954;28;20213;-85
2023/08/25 04:56:04;;;;;;;3.93;3.53;;;;;;;19.77;100.00;97614.66;5032031;28;20680;-85
2023/08/25 04:58:31;;;;;;;7.37;3.00;;;;;;;19.78;100.00;97604.75;5032280;28;20669;-86
2023/08/25 05:00:58;;;;;;;4.17;3.17;;;;;;;19.78;100.00;97604.75;5031883;28;20208;-86
2023/08/25 05:03:24;;;;;;;4.37;3.00;;;;;;;19.83;100.00;97603.25;5032331;28;20212;-85
2023/08/25 05:05:51;;;;;;;3.37;2.93;;;;;;;19.89;100.00;97617.78;5031946;28;20223;-85
2023/08/25 05:08:17;;;;;;;5.53;3.40;;;;;;;20.01;100.00;97617.22;5031356;28;20225;-86
2023/08/25 05:10:45;;;;;;;3.77;3.03;;;;;;;20.06;100.00;97601.44;5031928;28;20236;-86
2023/08/25 05:13:12;;;;;;;3.73;3.17;;;;;;;20.15;100.00;97586.13;5031897;28;20220;-85
2023/08/25 05:15:38;;;;;;;3.67;3.00;;;;;;;20.23;100.00;97589.59;5032113;28;20580;-85
2023/08/25 05:18:05;;;;;;;3.07;2.70;;;;;;;20.31;100.00;97591.38;5032779;28;20236;-84
2023/08/25 05:20:31;;;;;;;4.07;2.70;;;;;;;20.41;100.00;97587.44;5045550;28;20691;-85
2023/08/25 05:22:58;;;;;;;3.57;2.60;;;;;;;20.53;100.00;97595.88;5046195;28;20230;-83
2023/08/25 05:25:24;;;;;;;3.73;2.60;;;;;;;20.69;100.00;97599.28;5054695;28;20283;-86
2023/08/25 05:27:52;;;;;;;3.73;2.53;;;;;;;20.88;100.00;97600.63;5056668;28;20484;-86
2023/08/25 05:30:19;;;;;;;4.60;2.73;;;;;;;21.02;100.00;97603.34;5056077;28;20287;-86
2023/08/25 05:32:46;;;;;;;4.50;2.87;;;;;;;21.19;100.00;97598.63;5056716;28;20223;-86
2023/08/25 05:35:12;;;;;;;3.83;3.10;;;;;;;21.33;100.00;97595.94;5056497;28;20199;-86
2023/08/25 05:37:40;;;;;;;3.83;2.67;;;;;;;21.54;100.00;97612.19;5056636;28;20213;-86
2023/08/25 05:40:07;;;;;;;4.40;2.90;;;;;;;21.76;100.00;97618.50;5054155;28;20208;-85
2023/08/25 05:42:35;;;;;;;4.87;2.73;;;;;;;21.99;100.00;97625.41;5049579;28;20212;-84
2023/08/25 05:45:04;;;;;;;3.67;2.77;;;;;;;22.09;100.00;97631.31;5049872;28;20212;-85
2023/08/25 05:47:30;;;;;;;2.90;2.60;;;;;;;22.07;100.00;97644.13;5050464;28;20233;-85
2023/08/25 05:49:58;;;;;;;3.80;2.90;;;;;;;22.18;100.00;97646.31;5051408;28;20250;-86
2023/08/25 05:52:24;;;;;;;3.27;2.80;;;;;;;22.22;100.00;97655.69;5052304;28;20361;-84
2023/08/25 05:54:51;;;;;;;4.80;2.70;;;;;;;22.28;100.00;97667.56;5045960;28;20211;-85
2023/08/25 05:57:17;;;;;;;3.33;2.80;;;;;;;22.36;100.00;97687.13;5044739;28;20228;-83
2023/08/25 05:59:44;;;;;;;2.77;2.37;;;;;;;22.38;100.00;97690.44;5043273;28;20272;-84
2023/08/25 06:02:12;;;;;;;3.90;2.93;;;;;;;22.31;100.00;97703.00;5043347;28;20232;-84
2023/08/25 06:04:38;;;;;;;4.13;2.90;;;;;;;22.26;100.00;97713.50;5042464;28;20300;-85
2023/08/25 06:07:05;;;;;;;4.93;2.80;;;;;;;22.24;100.00;97731.72;5042728;28;20209;-85
2023/08/25 06:09:31;;;;;;;3.50;2.83;;;;;;;22.16;100.00;97750.69;5041313;28;20242;-85
2023/08/25 06:11:59;;;;;;;4.27;2.57;;;;;;;22.15;100.00;97786.69;5031255;28;20557;-86
2023/08/25 06:14:26;;;;;;;3.83;2.60;;;;;;;22.04;100.00;97827.53;5030948;28;20244;-87
2023/08/25 06:16:52;;;;;;;3.73;3.03;;;;;;;21.90;100.00;97846.34;5030692;28;20224;-85
2023/08/25 06:19:20;;;;;;;2.90;2.60;;;;;;;21.85;100.00;97854.13;5038030;28;20211;-86
2023/08/25 06:21:46;;;;;;;6.50;2.90;;;;;;;21.79;100.00;97887.13;5053845;28;20709;-86
2023/08/25 06:24:13;;;;;;;3.93;2.87;;;;;;;21.77;100.00;97933.03;5051805;28;20211;-86
2023/08/25 06:26:39;;;;;;;4.30;3.07;;;;;;;21.72;100.00;97900.50;5053291;28;20231;-87
2023/08/25 06:29:06;;;;;;;3.83;2.57;;;;;;;21.76;100.00;97874.88;5055128;28;20292;-87
2023/08/25 06:31:33;;;;;;;4.87;2.70;;;;;;;21.68;100.00;97874.97;5037359;28;20229;-87
2023/08/25 06:34:02;;;;;;;4.83;3.13;;;;;;;21.64;100.00;97883.56;5053253;28;20247;-87
2023/08/25 06:36:30;;;;;;;4.63;3.17;;;;;;;21.46;100.00;97920.66;5056972;28;20251;-87
2023/08/25 06:38:56;;;;;;;5.73;3.40;;;;;;;21.31;100.00;97909.84;5034602;28;20715;-87
2023/08/25 06:41:23;;;;;;;5.03;3.23;;;;;;;21.19;100.00;97916.63;5034843;28;20312;-86
2023/08/25 06:43:49;;;;;;;5.67;3.40;;;;;;;21.12;100.00;97931.81;5034291;28;20205;-87
2023/08/25 06:46:16;;;;;;;5.87;3.83;;;;;;;21.13;100.00;97916.50;5034271;28;20224;-88
2023/08/25 06:48:42;;;;;;;4.33;3.80;;;;;;;21.08;100.00;97921.59;5038073;28;20228;-87
2023/08/25 06:51:09;;;;;;;4.13;3.40;;;;;;;21.02;100.00;97914.22;5047922;28;20227;-88
2023/08/25 06:53:37;;;;;;;6.83;3.47;;;;;;;20.97;100.00;97916.59;5054989;28;20260;-92
2023/08/25 06:56:04;;;;;;;4.43;3.67;;;;;;;20.88;100.00;97929.22;5048198;28;20213;-83
2023/08/25 06:58:30;;;;;;;4.87;3.80;;;;;;;20.69;100.00;97937.69;5039020;28;20228;-85
2023/08/25 07:00:57;;;;;;;5.67;4.17;;;;;;;20.60;100.00;97927.97;5039429;28;20208;-84
2023/08/25 07:03:23;;;;;;;7.27;4.30;;;;;;;20.48;100.00;97909.72;5039727;28;20204;-85
2023/08/25 07:05:50;;;;;;;6.13;4.20;;;;;;;20.37;100.00;97908.22;5043453;28;20238;-85
2023/08/25 07:08:16;;;;;;;7.03;4.80;;;;;;;20.28;100.00;97914.63;5049982;28;20239;-84
2023/08/25 07:10:47;;;;;;;6.33;4.80;;;;;;;20.24;100.00;97913.28;5037443;28;20236;-84
2023/08/25 07:13:14;;;;;;;5.43;4.40;;;;;;;20.21;100.00;97908.28;5033919;28;20215;-85
2023/08/25 07:15:40;;;;;;;6.20;4.40;;;;;;;20.18;100.00;97897.88;5033814;28;20216;-84
2023/08/25 07:18:07;;;;;;;6.20;4.57;;;;;;;20.13;100.00;97894.91;5033494;28;20243;-85
2023/08/25 07:20:34;;;;;;;5.20;4.63;;;;;;;20.11;100.00;97899.56;5033349;28;20207;-85
2023/08/25 07:23:00;;;;;;;6.47;5.00;;;;;;;20.03;100.00;97910.28;5033719;28;20578;-85
2023/08/25 07:25:27;;;;;;;5.97;4.93;;;;;;;20.04;100.00;97928.06;5033425;28;20262;-85
2023/08/25 07:27:55;;;;;;;6.30;4.70;;;;;;;19.95;100.00;97921.03;5033453;28;20233;-85
2023/08/25 07:30:21;;;;;;;6.10;4.37;;;;;;;19.87;100.00;97921.03;5033010;28;20651;-85
2023/08/25 07:32:50;;;;;;;7.63;5.30;;;;;;;19.86;100.00;97935.47;5032775;28;20209;-85
2023/08/25 07:35:17;;;;;;;6.07;4.70;;;;;;;19.90;100.00;97958.25;5032921;28;20224;-85
2023/08/25 07:37:43;;;;;;;6.63;4.87;;;;;;;19.86;100.00;97951.56;5033384;28;20229;-85
2023/08/25 07:40:10;;;;;;;6.17;5.10;;;;;;;19.79;100.00;97961.28;5033326;28;20304;-85
2023/08/25 07:42:37;;;;;;;7.37;5.47;;;;;;;19.76;100.00;97974.19;5033583;28;20267;-85
2023/08/25 07:45:06;;;;;;;6.97;5.17;;;;;;;19.74;100.00;97994.97;5033210;28;20223;-82
2023/08/25 07:47:33;;;;;;;6.70;5.37;;;;;;;19.76;100.00;97987.59;5032987;28;20235;-76
2023/08/25 07:49:59;;;;;;;9.23;5.57;;;;;;;19.73;100.00;98002.16;5032896;28;20233;-84
2023/08/25 07:52:26;;;;;;;7.50;5.60;;;;;;;19.76;100.00;98001.81;5032983;28;20216;-82
2023/08/25 07:54:52;;;;;;;6.43;4.67;;;;;;;19.69;100.00;98002.66;5033007;28;20307;-85
2023/08/25 07:57:19;;;;;;;8.70;5.03;;;;;;;19.63;100.00;98022.91;5033264;28;20239;-84
2023/08/25 07:59:45;;;;;;;6.97;5.17;;;;;;;19.58;100.00;98049.38;5032560;28;20201;-85
2023/08/25 08:02:13;;;;;;;7.60;5.07;;;;;;;19.61;100.00;98049.06;5032832;28;20291;-85
2023/08/25 08:04:40;;;;;;;5.80;4.80;;;;;;;19.55;100.00;98044.38;5033026;28;20205;-86
2023/08/25 08:07:06;;;;;;;8.47;5.10;;;;;;;19.52;100.00;98027.78;5032812;28;20216;-85
2023/08/25 08:09:33;;;;;;;8.47;5.67;;;;;;;19.54;100.00;98026.59;5032425;28;20209;-86
2023/08/25 08:12:00;;;;;;;6.10;5.00;;;;;;;19.52;100.00;98023.22;5032482;28;20216;-84
2023/08/25 08:14:26;;;;;;;7.83;4.70;;;;;;;19.47;100.00;98003.28;5032498;28;20213;-83
2023/08/25 08:16:53;;;;;;;6.27;4.27;;;;;;;19.45;100.00;98000.75;5032384;28;20225;-83
2023/08/25 08:19:21;;;;;;;6.17;4.80;;;;;;;19.46;100.00;97978.34;5031826;28;20220;-83
2023/08/25 08:21:47;;;;;;;6.73;4.07;;;;;;;19.51;100.00;97999.28;5032315;28;20212;-85
2023/08/25 08:24:14;;;;;;;4.47;3.67;;;;;;;19.47;100.00;97993.41;5031331;28;20216;-84
2023/08/25 08:26:41;;;;;;;4.30;3.67;;;;;;;19.43;100.00;98000.09;5030768;28;20861;-84
2023/08/25 08:29:08;;;;;;;4.60;3.97;;;;;;;19.36;100.00;98004.44;5030814;28;20759;-82
2023/08/25 08:31:35;;;;;;;5.73;3.43;;;;;;;19.31;100.00;98004.09;5031328;28;20233;-83
2023/08/25 08:34:01;;;;;;;4.07;3.63;;;;;;;19.34;100.00;98005.59;5031400;28;20376;-83
2023/08/25 08:36:29;;;;;;;4.63;3.70;;;;;;;19.26;100.00;97993.00;5030874;28;20299;-83
2023/08/25 08:38:56;;;;;;;4.90;3.70;;;;;;;19.27;100.00;97980.47;5030942;28;20232;-83
2023/08/25 08:41:22;;;;;;;6.50;4.00;;;;;;;19.31;100.00;97961.22;5031181;28;20208;-83
2023/08/25 08:43:52;;;;;;;6.37;4.60;;;;;;;19.33;100.00;97910.97;5030964;28;20205;-83
2023/08/25 08:46:19;;;;;;;6.77;4.47;;;;;;;19.36;100.00;97889.19;5030989;28;20219;-83
2023/08/25 08:48:48;;;;;;;6.53;4.27;;;;;;;19.34;100.00;97880.50;5031027;28;20241;-83
2023/08/25 08:51:16;;;;;;;6.00;4.00;;;;;;;19.36;100.00;97865.06;5031005;28;20234;-83
2023/08/25 08:53:44;;;;;;;7.67;4.33;;;;;;;19.37;100.00;97864.06;5031212;28;20220;-83
2023/08/25 08:56:11;;;;;;;4.83;3.93;;;;;;;19.42;100.00;97844.78;5030735;28;20747;-83
2023/08/25 08:58:38;;;;;;;5.90;4.17;;;;;;;19.39;100.00;97829.88;5031251;28;20236;-83
2023/08/25 09:01:05;;;;;;;5.43;4.47;;;;;;;19.40;100.00;97802.09;5025865;28;20208;-83
2023/08/25 09:03:34;;;;;;;5.80;4.10;;;;;;;19.39;100.00;97787.00;5031331;28;20239;-83
2023/08/25 09:06:03;;;;;;;4.50;3.73;;;;;;;19.44;100.00;97752.50;5047487;28;20219;-84
2023/08/25 09:08:30;;;;;;;5.50;3.83;;;;;;;19.53;100.00;97716.66;5050487;28;20250;-84
2023/08/25 09:11:02;;;;;;;4.90;4.27;;;;;;;19.56;100.00;97729.69;5050227;28;20607;-83
2023/08/25 09:13:33;;;;;;;5.03;4.53;;;;;;;19.65;100.00;97797.53;5050558;28;20299;-83
2023/08/25 09:15:59;;;;;;;7.37;4.53;;;;;;;19.73;100.00;97801.03;5050389;28;20215;-83
2023/08/25 09:18:33;;;;;;;5.63;4.27;;;;;;;19.79;100.00;97786.94;5050446;28;20271;-84
2023/08/25 09:21:01;;;;;;;5.47;4.10;;;;;;;19.84;100.00;97776.56;5050194;28;20231;-83
2023/08/25 09:23:27;;;;;;;6.10;4.30;;;;;;;19.85;100.00;97783.59;5050545;28;20701;-83
2023/08/25 09:25:56;;;;;;;5.80;4.40;;;;;;;19.94;100.00;97782.53;5050363;28;20219;-83
2023/08/25 09:28:27;;;;;;;6.40;4.27;;;;;;;20.03;100.00;97760.06;5057625;22;20236;-83
2023/08/25 09:30:53;;;;;;;8.63;4.93;;;;;;;20.16;100.00;97763.03;5029897;28;20229;-81
2023/08/25 09:33:20;;;;;;;5.53;4.70;;;;;;;20.23;100.00;97755.97;5030508;28;20227;-81
2023/08/25 09:35:46;;;;;;;6.83;4.83;;;;;;;20.33;100.00;97745.00;5030492;28;20213;-82
2023/08/25 09:38:21;;;;;;;6.93;4.63;;;;;;;20.40;100.00;97713.75;5030520;28;20707;-82
2023/08/25 09:40:48;;;;;;;6.03;4.20;;;;;;;20.47;100.00;97704.00;5030433;28;20231;-80
2023/08/25 09:43:14;;;;;;;7.53;4.57;;;;;;;20.53;100.00;97704.13;5031365;28;20209;-81
2023/08/25 09:45:42;;;;;;;7.23;4.10;;;;;;;20.53;100.00;97703.28;5031274;28;20208;-75
2023/08/25 09:48:11;;;;;;;6.23;4.37;;;;;;;20.56;100.00;97735.16;5031003;28;20229;-82
2023/08/25 09:50:39;;;;;;;5.27;4.20;;;;;;;20.54;100.00;97724.59;5030768;28;20631;-77
2023/08/25 09:53:07;;;;;;;7.20;4.50;;;;;;;20.55;100.00;97722.75;5031368;28;20262;-77
2023/08/25 09:55:36;;;;;;;4.53;4.03;;;;;;;20.54;100.00;97724.59;5034348;28;20204;-76
2023/08/25 09:58:04;;;;;;;6.20;4.50;;;;;;;20.65;100.00;97729.53;5035306;28;20232;-77
2023/08/25 10:00:31;;;;;;;6.90;4.47;;;;;;;20.74;100.00;97739.25;5034987;28;20581;-77
2023/08/25 10:03:01;;;;;;;7.20;4.23;;;;;;;20.81;100.00;97740.19;5035013;28;20209;-77
2023/08/25 10:05:28;;;;;;;6.23;4.23;;;;;;;20.86;100.00;97732.41;5035303;28;20220;-78
2023/08/25 10:07:55;;;;;;;6.63;4.27;;;;;;;20.88;100.00;97734.94;5035082;28;20228;-77
2023/08/25 10:10:23;;;;;;;5.50;4.30;;;;;;;20.89;100.00;97750.91;5033252;28;20212;-78
2023/08/25 10:12:50;;;;;;;5.30;3.93;;;;;;;20.88;100.00;97746.56;5032346;28;20232;-78
2023/08/25 10:15:18;;;;;;;5.27;4.40;;;;;;;20.84;100.00;97750.56;5034098;28;20259;-81
2023/08/25 10:17:47;;;;;;;3.90;3.30;;;;;;;20.82;100.00;97747.22;5034095;28;20228;-81
2023/08/25 10:20:15;;;;;;;5.23;3.80;;;;;;;20.82;100.00;97744.53;5033566;28;20209;-78
2023/08/25 10:22:47;;;;;;;4.90;3.13;;;;;;;20.84;100.00;97750.56;5033980;28;20299;-78
2023/08/25 10:25:14;;;;;;;4.83;3.10;;;;;;;20.95;100.00;97744.81;5034135;28;20204;-78
2023/08/25 10:27:41;;;;;;;5.03;3.27;;;;;;;21.01;100.00;97730.66;5033556;28;20598;-76
2023/08/25 10:30:08;;;;;;;4.37;3.40;;;;;;;21.02;100.00;97737.69;5033350;28;20209;-76
2023/08/25 10:32:55;;;;;;;5.27;3.30;;;;;;;21.08;100.00;97736.97;5033578;28;20240;-78
2023/08/25 10:35:44;;;;;;;4.73;3.17;;;;;;;21.08;100.00;97757.66;5033800;28;20231;-77
2023/08/25 10:38:22;;;;;;;3.77;3.10;;;;;;;21.13;100.00;97774.91;5033753;28;20229;-77
2023/08/25 10:40:50;;;;;;;4.37;3.43;;;;;;;21.18;100.00;97782.41;5033336;28;20581;-79
2023/08/25 10:43:24;;;;;;;3.60;3.30;;;;;;;21.28;100.00;97802.66;5034425;28;20212;-79
2023/08/25 10:45:51;;;;;;;3.33;2.77;;;;;;;21.40;100.00;97811.97;5034166;28;20208;-79
2023/08/25 10:48:19;;;;;;;4.20;2.83;;;;;;;21.52;100.00;97818.56;5034269;28;20228;-78
2023/08/25 10:50:47;;;;;;;3.47;3.13;;;;;;;21.63;100.00;97823.53;5033752;28;20264;-81
2023/08/25 10:53:38;;;;;;;3.93;3.20;;;;;;;21.65;100.00;97840.31;5034439;28;20228;-81
2023/08/25 10:56:15;;;;;;;4.90;3.30;;;;;;;21.73;100.00;97831.38;5034249;28;20208;-78
2023/08/25 10:58:42;;;;;;;3.67;3.17;;;;;;;21.78;100.00;97842.41;5034058;28;20647;-81
2023/08/25 11:01:09;;;;;;;5.93;2.90;;;;;;;21.88;100.00;97824.19;5033585;28;20216;-84
2023/08/25 11:04:07;;;;;;;4.20;2.67;;;;;;;21.84;100.00;97812.94;5034207;28;20219;-80
2023/08/25 11:06:39;;;;;;;6.33;3.37;;;;;;;21.79;100.00;97807.28;5032690;28;20296;-84
2023/08/25 11:09:06;;;;;;;3.93;3.40;;;;;;;21.79;100.00;97796.50;5033800;28;20725;-85
2023/08/25 11:11:36;;;;;;;3.40;3.10;;;;;;;21.85;100.00;97805.69;5033787;28;20238;-81
2023/08/25 11:14:03;;;;;;;3.33;3.00;;;;;;;21.86;100.00;97800.13;5034063;28;20209;-83
2023/08/25 11:16:29;;;;;;;4.30;3.10;;;;;;;21.85;100.00;97790.41;5033888;28;20244;-81
2023/08/25 11:18:56;;;;;;;5.50;3.17;;;;;;;21.83;100.00;97778.97;5033581;28;20237;-81
2023/08/25 11:21:26;;;;;;;3.37;2.97;;;;;;;21.85;100.00;97768.88;5033345;28;20811;-81
2023/08/25 11:23:54;;;;;;;3.97;3.10;;;;;;;21.86;100.00;97786.69;5033688;28;20208;-82
2023/08/25 11:26:21;;;;;;;4.03;2.90;;;;;;;21.94;100.00;97789.28;5033531;28;20212;-82